createdAt,value
2018-07-31T00:01:41.700Z,21.80
2018-07-31T00:04:09.035Z,21.70
2018-07-31T00:09:06.381Z,21.80
2018-07-31T00:11:34.819Z,21.70
2018-07-31T00:16:29.588Z,21.80
2018-07-31T00:18:56.984Z,21.80
2018-07-31T00:21:24.352Z,21.90
2018-07-31T00:23:51.728Z,21.80
2018-07-31T00:26:19.098Z,21.70
2018-07-31T00:28:46.440Z,21.70
2018-07-31T00:31:13.771Z,21.70
2018-07-31T00:36:08.541Z,21.70
2018-07-31T00:38:35.920Z,21.60
2018-07-31T00:41:03.272Z,21.50
2018-07-31T00:43:30.634Z,21.40
2018-07-31T00:45:58.016Z,21.40
2018-07-31T00:48:25.364Z,21.40
2018-07-31T00:50:52.726Z,21.30
2018-07-31T00:53:20.106Z,21.20
2018-07-31T00:55:47.553Z,21.20
2018-07-31T00:58:15.209Z,21.00
2018-07-31T01:00:42.584Z,21.00
2018-07-31T01:03:10.022Z,21.10
2018-07-31T01:05:37.376Z,21.20
2018-07-31T01:08:04.734Z,21.10
2018-07-31T01:10:32.087Z,21.00
2018-07-31T01:12:59.508Z,21.00
2018-07-31T01:15:26.852Z,20.90
2018-07-31T01:17:54.228Z,20.90
2018-07-31T01:20:21.612Z,20.90
2018-07-31T01:22:48.980Z,20.90
2018-07-31T01:25:16.396Z,21.00
2018-07-31T01:27:43.874Z,20.90
2018-07-31T01:30:11.252Z,20.90
2018-07-31T01:32:38.604Z,21.00
2018-07-31T01:35:06.174Z,20.90
2018-07-31T01:37:33.523Z,20.90
2018-07-31T01:40:00.868Z,20.80
2018-07-31T01:44:55.472Z,20.70
2018-07-31T01:47:22.720Z,20.70
2018-07-31T01:49:50.068Z,20.60
2018-07-31T02:03:16.448Z,20.40
2018-07-31T02:05:43.820Z,20.40
2018-07-31T02:08:11.128Z,20.40
2018-07-31T02:10:38.869Z,20.50
2018-07-31T02:13:06.533Z,20.60
2018-07-31T02:15:33.845Z,20.50
2018-07-31T02:18:01.156Z,20.40
2018-07-31T02:20:28.468Z,20.50
2018-07-31T02:22:55.776Z,20.30
2018-07-31T02:25:23.084Z,20.10
2018-07-31T02:27:50.462Z,20.10
2018-07-31T02:30:22.321Z,20.00
2018-07-31T02:32:50.700Z,19.80
2018-07-31T02:35:18.139Z,19.60
2018-07-31T02:40:12.965Z,19.70
2018-07-31T02:42:40.277Z,19.70
2018-07-31T02:45:09.513Z,19.90
2018-07-31T02:47:36.835Z,19.90
2018-07-31T02:50:04.848Z,19.90
2018-07-31T02:52:32.153Z,19.90
2018-07-31T02:54:59.579Z,19.80
2018-07-31T02:57:26.930Z,19.70
2018-07-31T02:59:54.196Z,19.90
2018-07-31T03:02:21.516Z,20.00
2018-07-31T03:04:48.782Z,20.00
2018-07-31T03:07:16.041Z,20.00
2018-07-31T03:09:43.308Z,19.90
2018-07-31T03:12:10.566Z,19.90
2018-07-31T03:14:37.808Z,19.90
2018-07-31T03:17:05.140Z,19.80
2018-07-31T03:19:32.390Z,19.70
2018-07-31T03:24:26.992Z,19.70
2018-07-31T03:26:54.338Z,19.80
2018-07-31T03:29:23.950Z,19.90
2018-07-31T03:31:51.309Z,19.70
2018-07-31T03:34:18.623Z,19.60
2018-07-31T03:36:46.020Z,19.60
2018-07-31T03:41:40.625Z,19.50
2018-07-31T03:44:08.092Z,19.50
2018-07-31T03:46:35.373Z,19.60
2018-07-31T03:49:02.653Z,19.70
2018-07-31T03:53:57.192Z,19.70
2018-07-31T03:58:51.893Z,19.80
2018-07-31T04:01:19.129Z,19.70
2018-07-31T04:03:46.429Z,19.80
2018-07-31T04:06:13.807Z,19.80
2018-07-31T04:08:41.048Z,19.70
2018-07-31T04:11:08.472Z,19.70
2018-07-31T04:13:35.758Z,19.70
2018-07-31T04:16:03.036Z,19.60
2018-07-31T04:18:30.322Z,19.70
2018-07-31T04:20:57.591Z,19.70
2018-07-31T04:23:24.841Z,19.50
2018-07-31T04:25:52.158Z,19.50
2018-07-31T04:28:19.422Z,19.50
2018-07-31T04:30:46.674Z,19.50
2018-07-31T04:35:41.263Z,19.70
2018-07-31T04:38:10.689Z,19.70
2018-07-31T04:40:40.214Z,19.70
2018-07-31T04:43:07.644Z,19.60
2018-07-31T04:45:34.981Z,19.70
2018-07-31T04:48:02.328Z,19.70
2018-07-31T04:50:29.879Z,19.70
2018-07-31T04:52:57.129Z,19.70
2018-07-31T04:55:24.425Z,19.80
2018-07-31T04:57:52.187Z,21.40
2018-07-31T05:00:19.632Z,23.30
2018-07-31T05:02:46.892Z,24.70
2018-07-31T05:05:14.149Z,26.10
2018-07-31T05:07:41.408Z,27.00
2018-07-31T05:10:12.175Z,27.60
2018-07-31T05:12:41.478Z,28.30
2018-07-31T05:15:08.855Z,28.70
2018-07-31T05:17:37.167Z,28.50
2018-07-31T05:20:04.728Z,26.90
2018-07-31T05:22:32.393Z,26.10
2018-07-31T05:24:59.726Z,25.50
2018-07-31T05:29:54.409Z,24.70
2018-07-31T05:32:21.719Z,24.30
2018-07-31T05:37:16.731Z,24.00
2018-07-31T05:39:44.176Z,23.70
2018-07-31T05:42:11.454Z,23.60
2018-07-31T05:44:39.028Z,23.50
2018-07-31T05:47:06.338Z,23.50
2018-07-31T05:52:01.532Z,23.30
2018-07-31T05:54:28.832Z,23.30
2018-07-31T05:56:56.101Z,23.20
2018-07-31T05:59:23.452Z,23.20
2018-07-31T06:01:50.957Z,23.10
2018-07-31T06:06:45.463Z,23.10
2018-07-31T06:09:13.268Z,23.20
2018-07-31T06:14:08.341Z,23.00
2018-07-31T06:16:35.674Z,23.00
2018-07-31T06:21:30.230Z,23.10
2018-07-31T06:23:57.765Z,23.00
2018-07-31T06:28:52.582Z,23.10
2018-07-31T06:31:19.849Z,23.20
2018-07-31T06:33:47.289Z,23.20
2018-07-31T06:36:14.553Z,23.20
2018-07-31T06:38:41.806Z,23.30
2018-07-31T06:41:09.130Z,23.30
2018-07-31T06:43:36.425Z,23.30
2018-07-31T06:46:03.701Z,23.40
2018-07-31T06:48:30.973Z,23.40
2018-07-31T06:50:58.243Z,23.50
2018-07-31T06:53:25.500Z,23.60
2018-07-31T06:55:52.766Z,23.60
2018-07-31T06:58:20.149Z,23.70
2018-07-31T07:00:47.410Z,23.80
2018-07-31T07:03:14.649Z,23.80
2018-07-31T07:05:41.936Z,23.90
2018-07-31T07:08:09.208Z,23.90
2018-07-31T07:10:36.508Z,24.00
2018-07-31T07:13:03.797Z,24.10
2018-07-31T07:17:58.370Z,24.30
2018-07-31T07:20:25.686Z,24.30
2018-07-31T07:22:53.693Z,24.30
2018-07-31T07:25:20.994Z,24.30
2018-07-31T07:30:21.114Z,24.60
2018-07-31T07:32:48.397Z,24.60
2018-07-31T07:35:15.714Z,24.70
2018-07-31T07:37:43.338Z,24.80
2018-07-31T07:40:10.613Z,24.90
2018-07-31T07:42:37.889Z,25.10
2018-07-31T07:45:05.229Z,25.10
2018-07-31T07:47:33.221Z,25.10
2018-07-31T07:50:01.605Z,25.20
2018-07-31T07:52:28.938Z,25.30
2018-07-31T07:54:56.296Z,25.40
2018-07-31T07:57:23.573Z,25.50
2018-07-31T07:59:50.851Z,25.60
2018-07-31T08:02:18.238Z,25.60
2018-07-31T08:04:45.557Z,25.70
2018-07-31T08:07:12.860Z,25.80
2018-07-31T08:09:40.123Z,25.80
2018-07-31T08:14:34.685Z,26.00
2018-07-31T08:17:02.027Z,26.10
2018-07-31T08:19:30.092Z,26.10
2018-07-31T08:21:57.440Z,26.20
2018-07-31T08:24:24.692Z,26.30
2018-07-31T08:26:52.163Z,26.30
2018-07-31T08:29:19.434Z,26.40
2018-07-31T08:31:46.816Z,26.50
2018-07-31T08:34:14.244Z,26.50
2018-07-31T08:36:41.534Z,26.70
2018-07-31T08:39:09.592Z,26.70
2018-07-31T08:41:37.118Z,26.90
2018-07-31T08:44:04.581Z,26.90
2018-07-31T08:46:32.699Z,27.00
2018-07-31T08:49:01.012Z,27.20
2018-07-31T08:51:28.802Z,27.20
2018-07-31T08:53:56.087Z,27.30
2018-07-31T08:56:23.781Z,27.60
2018-07-31T09:01:18.592Z,27.60
2018-07-31T09:03:45.970Z,27.70
2018-07-31T09:06:13.491Z,27.70
2018-07-31T09:08:40.998Z,27.80
2018-07-31T09:11:08.289Z,27.80
2018-07-31T09:13:35.529Z,28.00
2018-07-31T09:16:02.860Z,28.00
2018-07-31T09:18:31.658Z,28.10
2018-07-31T09:20:58.867Z,28.20
2018-07-31T09:23:26.128Z,28.20
2018-07-31T09:25:58.685Z,28.30
2018-07-31T09:28:26.437Z,28.40
2018-07-31T09:35:53.919Z,28.70
2018-07-31T09:38:21.161Z,28.70
2018-07-31T09:40:48.566Z,28.80
2018-07-31T09:43:15.801Z,28.90
2018-07-31T09:45:43.030Z,29.00
2018-07-31T09:48:10.294Z,29.10
2018-07-31T09:50:37.831Z,29.20
2018-07-31T09:53:05.125Z,29.30
2018-07-31T09:58:00.546Z,29.40
2018-07-31T10:00:33.545Z,29.50
2018-07-31T10:03:00.986Z,29.70
2018-07-31T10:05:28.253Z,29.60
2018-07-31T10:07:55.904Z,29.70
2018-07-31T10:10:23.378Z,29.80
2018-07-31T10:12:50.631Z,29.80
2018-07-31T10:17:45.196Z,30.10
2018-07-31T10:20:12.742Z,30.10
2018-07-31T10:22:40.024Z,30.10
2018-07-31T10:25:07.590Z,30.20
2018-07-31T10:27:34.836Z,30.20
2018-07-31T10:30:02.116Z,30.30
2018-07-31T10:32:29.387Z,30.30
2018-07-31T10:34:56.621Z,30.40
2018-07-31T10:37:23.874Z,30.40
2018-07-31T10:39:51.085Z,30.50
2018-07-31T10:42:18.347Z,30.50
2018-07-31T10:44:45.584Z,30.50
2018-07-31T10:47:12.831Z,30.50
2018-07-31T10:49:40.069Z,30.60
2018-07-31T10:52:07.711Z,30.70
2018-07-31T10:54:34.969Z,30.70
2018-07-31T10:57:02.235Z,30.80
2018-07-31T10:59:29.438Z,30.90
2018-07-31T11:01:57.938Z,30.90
2018-07-31T11:04:25.238Z,31.00
2018-07-31T11:06:52.615Z,31.00
2018-07-31T11:11:47.188Z,31.20
2018-07-31T11:14:14.480Z,31.30
2018-07-31T11:16:41.724Z,31.30
2018-07-31T11:19:08.990Z,31.40
2018-07-31T11:21:36.310Z,31.40
2018-07-31T11:26:30.997Z,31.40
2018-07-31T11:28:58.390Z,31.40
2018-07-31T11:31:25.677Z,31.40
2018-07-31T11:36:20.269Z,31.80
2018-07-31T11:38:47.888Z,31.80
2018-07-31T11:43:42.448Z,31.80
2018-07-31T11:48:37.002Z,31.90
2018-07-31T11:51:05.163Z,31.80
2018-07-31T11:53:32.947Z,31.70
2018-07-31T11:56:00.206Z,31.80
2018-07-31T11:58:27.844Z,31.40
2018-07-31T12:00:55.103Z,31.30
2018-07-31T12:03:22.356Z,31.30
2018-07-31T12:05:49.972Z,31.30
2018-07-31T12:08:17.277Z,31.40
2018-07-31T12:10:44.569Z,31.40
2018-07-31T12:13:11.844Z,31.40
2018-07-31T12:15:39.181Z,31.40
2018-07-31T12:18:06.464Z,31.40
2018-07-31T12:20:33.795Z,31.40
2018-07-31T12:23:01.693Z,31.40
2018-07-31T12:25:29.104Z,31.40
2018-07-31T12:30:23.759Z,31.60
2018-07-31T12:32:51.095Z,31.70
2018-07-31T12:35:18.592Z,31.80
2018-07-31T12:37:45.937Z,31.80
2018-07-31T12:40:13.220Z,31.80
2018-07-31T12:42:40.554Z,31.90
2018-07-31T12:45:07.859Z,31.90
2018-07-31T12:47:35.179Z,31.90
2018-07-31T12:50:03.238Z,32.10
2018-07-31T12:52:30.498Z,32.30
2018-07-31T12:54:57.801Z,32.30
2018-07-31T12:57:25.446Z,32.20
2018-07-31T12:59:52.775Z,32.00
2018-07-31T13:02:20.037Z,31.90
2018-07-31T13:07:14.797Z,31.70
2018-07-31T13:09:42.138Z,31.70
2018-07-31T13:12:09.473Z,31.80
2018-07-31T13:14:36.776Z,31.80
2018-07-31T13:17:04.131Z,31.90
2018-07-31T13:19:31.411Z,32.00
2018-07-31T13:21:58.889Z,32.10
2018-07-31T13:24:26.392Z,32.20
2018-07-31T13:26:53.753Z,32.30
2018-07-31T13:29:21.045Z,32.30
2018-07-31T13:31:49.013Z,32.30
2018-07-31T13:34:16.357Z,32.40
2018-07-31T13:36:43.684Z,32.50
2018-07-31T13:39:10.972Z,32.60
2018-07-31T13:41:38.285Z,32.60
2018-07-31T13:44:05.917Z,32.60
2018-07-31T13:46:33.096Z,32.70
2018-07-31T13:49:02.066Z,32.70
2018-07-31T13:51:29.405Z,32.80
2018-07-31T13:53:56.706Z,32.80
2018-07-31T13:58:51.676Z,32.70
2018-07-31T14:01:18.957Z,32.70
2018-07-31T14:03:46.271Z,32.80
2018-07-31T14:06:13.577Z,32.80
2018-07-31T14:08:40.889Z,32.80
2018-07-31T14:11:08.191Z,32.60
2018-07-31T14:13:35.490Z,32.40
2018-07-31T14:16:02.892Z,32.30
2018-07-31T14:18:30.652Z,32.20
2018-07-31T14:20:58.900Z,32.10
2018-07-31T14:23:26.210Z,32.00
2018-07-31T14:25:53.620Z,32.00
2018-07-31T14:28:20.896Z,31.90
2018-07-31T14:30:48.241Z,31.90
2018-07-31T14:33:16.061Z,31.90
2018-07-31T14:35:43.372Z,31.90
2018-07-31T14:40:38.077Z,31.90
2018-07-31T14:43:05.425Z,31.90
2018-07-31T14:45:32.780Z,31.80
2018-07-31T14:48:00.333Z,31.80
2018-07-31T14:50:27.656Z,31.60
2018-07-31T14:52:55.097Z,31.60
2018-07-31T14:55:22.546Z,31.50
2018-07-31T14:57:50.244Z,31.40
2018-07-31T15:00:17.533Z,31.40
2018-07-31T15:02:44.829Z,31.40
2018-07-31T15:05:13.556Z,31.40
2018-07-31T15:07:40.813Z,31.30
2018-07-31T15:10:08.313Z,31.30
2018-07-31T15:12:35.659Z,31.30
2018-07-31T15:15:03.021Z,31.30
2018-07-31T15:17:30.297Z,31.20
2018-07-31T15:19:57.643Z,31.20
2018-07-31T15:22:25.248Z,31.30
2018-07-31T15:24:52.530Z,31.40
2018-07-31T15:27:19.793Z,31.40
2018-07-31T15:29:47.058Z,31.40
2018-07-31T15:32:14.343Z,31.40
2018-07-31T15:34:41.585Z,31.60
2018-07-31T15:37:08.912Z,31.90
2018-07-31T15:39:36.174Z,32.10
2018-07-31T15:42:03.681Z,32.30
2018-07-31T15:44:31.181Z,32.40
2018-07-31T15:46:58.493Z,32.80
2018-07-31T15:49:25.759Z,32.80
2018-07-31T15:51:53.182Z,32.90
2018-07-31T15:54:20.455Z,33.00
2018-07-31T15:56:47.691Z,33.10
2018-07-31T15:59:15.069Z,33.20
2018-07-31T16:01:42.377Z,33.30
2018-07-31T16:04:09.650Z,33.30
2018-07-31T16:06:37.053Z,33.40
2018-07-31T16:09:06.888Z,33.50
2018-07-31T16:11:34.177Z,33.50
2018-07-31T16:14:01.493Z,33.60
2018-07-31T16:16:28.832Z,33.60
2018-07-31T16:23:50.843Z,33.50
2018-07-31T16:26:18.187Z,33.50
2018-07-31T16:28:45.452Z,33.50
2018-07-31T16:31:12.803Z,33.60
2018-07-31T16:33:40.055Z,33.60
2018-07-31T16:36:08.062Z,33.60
2018-07-31T16:38:35.305Z,33.60
2018-07-31T16:41:02.652Z,33.60
2018-07-31T16:43:29.968Z,33.60
2018-07-31T16:45:57.245Z,33.60
2018-07-31T16:53:19.120Z,33.50
2018-07-31T16:55:46.372Z,33.40
2018-07-31T16:58:13.655Z,33.50
2018-07-31T17:00:40.938Z,33.40
2018-07-31T17:03:08.292Z,33.40
2018-07-31T17:05:35.565Z,33.30
2018-07-31T17:08:02.824Z,33.30
2018-07-31T17:10:30.082Z,33.30
2018-07-31T17:12:57.354Z,33.30
2018-07-31T17:15:24.777Z,33.30
2018-07-31T17:17:52.124Z,33.20
2018-07-31T17:20:19.499Z,33.20
2018-07-31T17:22:46.764Z,33.10
2018-07-31T17:25:14.144Z,33.10
2018-07-31T17:27:41.457Z,32.90
2018-07-31T17:30:08.756Z,32.80
2018-07-31T17:32:36.122Z,32.80
2018-07-31T17:35:03.589Z,32.80
2018-07-31T17:37:31.065Z,32.70
2018-07-31T17:39:58.342Z,32.60
2018-07-31T17:42:25.705Z,32.60
2018-07-31T17:44:52.975Z,32.40
2018-07-31T17:47:20.275Z,32.40
2018-07-31T17:49:47.579Z,32.50
2018-07-31T17:52:14.905Z,32.40
2018-07-31T17:54:42.234Z,32.30
2018-07-31T17:57:09.575Z,32.20
2018-07-31T17:59:36.853Z,32.10
2018-07-31T18:04:31.811Z,31.90
2018-07-31T18:06:59.101Z,31.90
2018-07-31T18:09:26.444Z,31.90
2018-07-31T18:11:53.727Z,31.80
2018-07-31T18:14:21.086Z,31.60
2018-07-31T18:16:48.265Z,31.50
2018-07-31T18:19:15.569Z,31.50
2018-07-31T18:21:42.848Z,31.50
2018-07-31T18:24:10.181Z,31.40
2018-07-31T18:26:37.457Z,31.30
2018-07-31T18:29:04.777Z,31.20
2018-07-31T18:31:32.064Z,31.20
2018-07-31T18:33:59.346Z,31.10
2018-07-31T18:36:26.641Z,31.10
2018-07-31T18:38:53.898Z,31.00
2018-07-31T18:41:21.199Z,30.80
2018-07-31T18:43:48.472Z,30.70
2018-07-31T18:46:15.737Z,30.60
2018-07-31T18:48:43.089Z,30.50
2018-07-31T18:51:10.343Z,30.50
2018-07-31T19:03:26.990Z,30.00
2018-07-31T19:05:54.379Z,29.90
2018-07-31T19:08:21.668Z,29.80
2018-07-31T19:10:49.041Z,29.80
2018-07-31T19:13:17.743Z,29.80
2018-07-31T19:15:45.843Z,29.70
2018-07-31T19:18:13.157Z,29.70
2018-07-31T19:20:40.500Z,29.60
2018-07-31T19:23:08.209Z,29.40
2018-07-31T19:25:35.496Z,29.30
2018-07-31T19:28:02.941Z,29.20
2018-07-31T19:30:30.144Z,29.10
2018-07-31T19:32:57.548Z,29.00
2018-07-31T19:35:25.407Z,29.00
2018-07-31T19:37:52.827Z,28.90
2018-07-31T19:40:20.373Z,28.80
2018-07-31T19:42:47.693Z,28.60
2018-07-31T19:45:15.093Z,28.50
2018-07-31T19:47:42.437Z,28.50
2018-07-31T19:50:09.855Z,28.30
2018-07-31T19:52:37.233Z,28.30
2018-07-31T19:55:04.635Z,28.30
2018-07-31T19:57:31.969Z,28.20
2018-07-31T19:59:59.256Z,28.10
2018-07-31T20:02:26.548Z,28.10
2018-07-31T20:04:53.869Z,28.00
2018-07-31T20:07:21.173Z,27.90
2018-07-31T20:09:48.518Z,27.70
2018-07-31T20:12:15.767Z,27.70
2018-07-31T20:14:43.038Z,27.60
2018-07-31T20:17:10.312Z,27.50
2018-07-31T20:19:37.559Z,27.40
2018-07-31T20:22:04.902Z,27.30
2018-07-31T20:24:32.201Z,27.20
2018-07-31T20:26:59.529Z,27.10
2018-07-31T20:31:54.037Z,27.00
2018-07-31T20:34:21.409Z,26.90
2018-07-31T20:36:48.654Z,26.90
2018-07-31T20:39:15.913Z,26.90
2018-07-31T20:41:43.243Z,26.80
2018-07-31T20:44:10.503Z,26.50
2018-07-31T20:46:37.896Z,26.30
2018-07-31T20:49:05.197Z,26.50
2018-07-31T20:51:32.504Z,26.40
2018-07-31T20:53:59.767Z,26.40
2018-07-31T20:56:27.045Z,26.30
2018-07-31T20:58:54.373Z,26.40
2018-07-31T21:01:21.841Z,26.30
2018-07-31T21:03:49.222Z,26.30
2018-07-31T21:06:16.522Z,26.20
2018-07-31T21:08:45.333Z,26.20
2018-07-31T21:11:12.617Z,26.20
2018-07-31T21:13:39.912Z,26.20
2018-07-31T21:16:07.236Z,26.10
2018-07-31T21:18:34.616Z,26.10
2018-07-31T21:21:01.865Z,26.20
2018-07-31T21:23:29.190Z,26.20
2018-07-31T21:25:56.570Z,26.10
2018-07-31T21:28:25.137Z,26.10
2018-07-31T21:33:19.698Z,25.90
2018-07-31T21:35:47.029Z,25.80
2018-07-31T21:38:14.329Z,25.70
2018-07-31T21:40:41.942Z,25.60
2018-07-31T21:43:09.488Z,25.50
2018-07-31T21:45:36.771Z,25.30
2018-07-31T21:48:04.296Z,25.20
2018-07-31T21:50:31.616Z,25.20
2018-07-31T21:52:58.920Z,25.20
2018-07-31T21:57:53.507Z,25.10
2018-07-31T22:00:20.820Z,25.10
2018-07-31T22:07:42.731Z,24.90
2018-07-31T22:12:37.440Z,24.70
2018-07-31T22:15:04.813Z,24.60
2018-07-31T22:17:32.117Z,24.70
2018-07-31T22:19:59.384Z,24.70
2018-07-31T22:22:26.731Z,24.70
2018-07-31T22:24:54.144Z,24.60
2018-07-31T22:27:21.531Z,24.60
2018-07-31T22:29:48.810Z,24.70
2018-07-31T22:32:16.322Z,24.60
2018-07-31T22:34:43.636Z,24.70
2018-07-31T22:37:11.016Z,24.60
2018-07-31T22:39:38.420Z,24.60
2018-07-31T22:42:05.736Z,24.60
2018-07-31T22:44:33.024Z,24.60
2018-07-31T22:47:00.420Z,24.60
2018-07-31T22:49:27.809Z,24.60
2018-07-31T22:51:55.123Z,24.50
2018-07-31T22:54:22.435Z,24.60
2018-07-31T22:56:49.735Z,24.70
2018-07-31T22:59:17.100Z,24.80
2018-07-31T23:01:44.496Z,24.80
2018-07-31T23:04:11.791Z,24.90
2018-07-31T23:06:39.085Z,24.90
2018-07-31T23:09:07.689Z,25.00
2018-07-31T23:11:35.070Z,25.10
2018-07-31T23:14:02.433Z,25.00
2018-07-31T23:16:29.800Z,25.20
2018-07-31T23:18:57.105Z,25.20
2018-07-31T23:21:24.489Z,25.20
2018-07-31T23:23:51.760Z,25.20
2018-07-31T23:26:19.069Z,25.20
2018-07-31T23:28:46.390Z,25.30
2018-07-31T23:31:13.751Z,25.30
2018-07-31T23:33:41.030Z,25.30
2018-07-31T23:36:08.333Z,25.40
2018-07-31T23:38:35.628Z,25.40
2018-07-31T23:41:02.929Z,25.40
2018-07-31T23:43:30.219Z,25.40
2018-07-31T23:45:57.546Z,25.40
2018-07-31T23:48:24.919Z,25.40
2018-07-31T23:50:52.199Z,25.30
2018-07-31T23:53:19.475Z,25.30
2018-07-31T23:55:46.734Z,25.40
2018-07-31T23:58:14.046Z,25.30
